sensor_id;sensor_type;location;lat;lon;timestamp;temperature;humidity
22558;DHT22;11445;53.816;8.902;2023-07-29T00:00:07;18.20;99.90
22558;DHT22;11445;53.816;8.902;2023-07-29T00:02:34;18.20;99.90
22558;DHT22;11445;53.816;8.902;2023-07-29T00:05:01;18.20;99.90
22558;DHT22;11445;53.816;8.902;2023-07-29T00:07:28;18.20;99.90
22558;DHT22;11445;53.816;8.902;2023-07-29T00:09:56;18.20;99.90
22558;DHT22;11445;53.816;8.902;2023-07-29T00:12:24;18.20;99.90
22558;DHT22;11445;53.816;8.902;2023-07-29T00:14:50;18.20;99.90
22558;DHT22;11445;53.816;8.902;2023-07-29T00:17:17;18.20;99.90
22558;DHT22;11445;53.816;8.902;2023-07-29T00:19:45;18.10;99.90
22558;DHT22;11445;53.816;8.902;2023-07-29T00:22:12;18.10;99.90
22558;DHT22;11445;53.816;8.902;2023-07-29T00:24:39;18.10;99.90
22558;DHT22;11445;53.816;8.902;2023-07-29T00:27:08;18.10;99.90
22558;DHT22;11445;53.816;8.902;2023-07-29T00:29:34;18.10;99.90
22558;DHT22;11445;53.816;8.902;2023-07-29T00:32:01;18.10;99.90
22558;DHT22;11445;53.816;8.902;2023-07-29T00:34:28;18.10;99.90
22558;DHT22;11445;53.816;8.902;2023-07-29T00:36:56;18.10;99.90
22558;DHT22;11445;53.816;8.902;2023-07-29T00:39:23;18.10;99.90
22558;DHT22;11445;53.816;8.902;2023-07-29T00:41:49;18.10;99.90
22558;DHT22;11445;53.816;8.902;2023-07-29T00:44:18;18.10;99.90
22558;DHT22;11445;53.816;8.902;2023-07-29T00:46:45;18.10;99.90
22558;DHT22;11445;53.816;8.902;2023-07-29T00:49:13;18.10;99.90
22558;DHT22;11445;53.816;8.902;2023-07-29T00:51:39;18.10;99.90
22558;DHT22;11445;53.816;8.902;2023-07-29T00:54:07;18.10;99.90
22558;DHT22;11445;53.816;8.902;2023-07-29T00:56:34;18.10;99.90
22558;DHT22;11445;53.816;8.902;2023-07-29T00:59:04;18.10;99.90
22558;DHT22;11445;53.816;8.902;2023-07-29T01:01:32;18.10;99.90
22558;DHT22;11445;53.816;8.902;2023-07-29T01:03:59;18.10;99.90
22558;DHT22;11445;53.816;8.902;2023-07-29T01:06:31;18.10;99.90
22558;DHT22;11445;53.816;8.902;2023-07-29T01:09:02;18.10;99.90
22558;DHT22;11445;53.816;8.902;2023-07-29T01:11:38;18.10;99.90
22558;DHT22;11445;53.816;8.902;2023-07-29T01:14:17;18.10;99.90
22558;DHT22;11445;53.816;8.902;2023-07-29T01:16:52;18.10;99.90
22558;DHT22;11445;53.816;8.902;2023-07-29T01:19:32;18.10;99.90
22558;DHT22;11445;53.816;8.902;2023-07-29T01:22:08;18.10;99.90
22558;DHT22;11445;53.816;8.902;2023-07-29T01:24:36;18.10;99.90
22558;DHT22;11445;53.816;8.902;2023-07-29T01:27:03;18.10;99.90
22558;DHT22;11445;53.816;8.902;2023-07-29T01:29:31;18.10;99.90
22558;DHT22;11445;53.816;8.902;2023-07-29T01:32:06;18.10;99.90
22558;DHT22;11445;53.816;8.902;2023-07-29T01:34:41;18.10;99.90
22558;DHT22;11445;53.816;8.902;2023-07-29T01:37:10;18.10;99.90
22558;DHT22;11445;53.816;8.902;2023-07-29T01:39:43;18.10;99.90
22558;DHT22;11445;53.816;8.902;2023-07-29T01:42:12;18.10;99.90
22558;DHT22;11445;53.816;8.902;2023-07-29T01:44:39;18.10;99.90
22558;DHT22;11445;53.816;8.902;2023-07-29T01:47:08;18.10;99.90
22558;DHT22;11445;53.816;8.902;2023-07-29T01:49:34;18.10;99.90
22558;DHT22;11445;53.816;8.902;2023-07-29T01:52:01;18.20;99.90
22558;DHT22;11445;53.816;8.902;2023-07-29T01:54:28;18.10;99.90
22558;DHT22;11445;53.816;8.902;2023-07-29T01:56:56;18.10;99.90
22558;DHT22;11445;53.816;8.902;2023-07-29T01:59:23;18.10;99.90
22558;DHT22;11445;53.816;8.902;2023-07-29T02:01:50;18.00;99.90
22558;DHT22;11445;53.816;8.902;2023-07-29T02:04:17;18.00;99.90
22558;DHT22;11445;53.816;8.902;2023-07-29T02:06:44;18.00;99.90
22558;DHT22;11445;53.816;8.902;2023-07-29T02:09:10;18.00;99.90
22558;DHT22;11445;53.816;8.902;2023-07-29T02:11:37;18.00;99.90
22558;DHT22;11445;53.816;8.902;2023-07-29T02:14:05;17.90;99.90
22558;DHT22;11445;53.816;8.902;2023-07-29T02:16:32;17.90;99.90
22558;DHT22;11445;53.816;8.902;2023-07-29T02:19:00;17.90;99.90
22558;DHT22;11445;53.816;8.902;2023-07-29T02:21:26;17.90;99.90
22558;DHT22;11445;53.816;8.902;2023-07-29T02:23:53;17.80;99.90
22558;DHT22;11445;53.816;8.902;2023-07-29T02:26:20;17.80;99.90
22558;DHT22;11445;53.816;8.902;2023-07-29T02:28:47;17.80;99.90
22558;DHT22;11445;53.816;8.902;2023-07-29T02:31:17;17.80;99.90
22558;DHT22;11445;53.816;8.902;2023-07-29T02:33:44;17.80;99.90
22558;DHT22;11445;53.816;8.902;2023-07-29T02:36:12;17.80;99.90
22558;DHT22;11445;53.816;8.902;2023-07-29T02:38:39;17.80;99.90
22558;DHT22;11445;53.816;8.902;2023-07-29T02:41:06;17.80;99.90
22558;DHT22;11445;53.816;8.902;2023-07-29T02:43:34;17.80;99.90
22558;DHT22;11445;53.816;8.902;2023-07-29T02:46:01;17.80;99.90
22558;DHT22;11445;53.816;8.902;2023-07-29T02:48:29;17.80;99.90
22558;DHT22;11445;53.816;8.902;2023-07-29T02:50:56;17.70;99.90
22558;DHT22;11445;53.816;8.902;2023-07-29T02:53:23;17.70;99.90
22558;DHT22;11445;53.816;8.902;2023-07-29T02:55:50;17.60;99.90
22558;DHT22;11445;53.816;8.902;2023-07-29T02:58:17;17.60;99.90
22558;DHT22;11445;53.816;8.902;2023-07-29T03:00:43;17.60;99.90
22558;DHT22;11445;53.816;8.902;2023-07-29T03:03:10;17.60;99.90
22558;DHT22;11445;53.816;8.902;2023-07-29T03:05:38;17.60;99.90
22558;DHT22;11445;53.816;8.902;2023-07-29T03:08:05;17.50;99.90
22558;DHT22;11445;53.816;8.902;2023-07-29T03:10:34;17.50;99.90
22558;DHT22;11445;53.816;8.902;2023-07-29T03:13:01;17.50;99.90
22558;DHT22;11445;53.816;8.902;2023-07-29T03:15:28;17.50;99.90
22558;DHT22;11445;53.816;8.902;2023-07-29T03:17:55;17.40;99.90
22558;DHT22;11445;53.816;8.902;2023-07-29T03:20:22;17.40;99.90
22558;DHT22;11445;53.816;8.902;2023-07-29T03:22:50;17.40;99.90
22558;DHT22;11445;53.816;8.902;2023-07-29T03:25:17;17.40;99.90
22558;DHT22;11445;53.816;8.902;2023-07-29T03:27:44;17.30;99.90
22558;DHT22;11445;53.816;8.902;2023-07-29T03:30:11;17.30;99.90
22558;DHT22;11445;53.816;8.902;2023-07-29T03:32:40;17.30;99.90
22558;DHT22;11445;53.816;8.902;2023-07-29T03:35:07;17.30;99.90
22558;DHT22;11445;53.816;8.902;2023-07-29T03:37:35;17.30;99.90
22558;DHT22;11445;53.816;8.902;2023-07-29T03:40:04;17.30;99.90
22558;DHT22;11445;53.816;8.902;2023-07-29T03:42:31;17.20;99.90
22558;DHT22;11445;53.816;8.902;2023-07-29T03:44:58;17.20;99.90
22558;DHT22;11445;53.816;8.902;2023-07-29T03:47:25;17.20;99.90
22558;DHT22;11445;53.816;8.902;2023-07-29T03:49:51;17.20;99.90
22558;DHT22;11445;53.816;8.902;2023-07-29T03:52:18;17.20;99.90
22558;DHT22;11445;53.816;8.902;2023-07-29T03:54:45;17.20;99.90
22558;DHT22;11445;53.816;8.902;2023-07-29T03:57:13;17.20;99.90
22558;DHT22;11445;53.816;8.902;2023-07-29T03:59:40;17.20;99.90
22558;DHT22;11445;53.816;8.902;2023-07-29T04:02:07;17.20;99.90
22558;DHT22;11445;53.816;8.902;2023-07-29T04:04:34;17.20;99.90
22558;DHT22;11445;53.816;8.902;2023-07-29T04:07:01;17.20;99.90
22558;DHT22;11445;53.816;8.902;2023-07-29T04:09:28;17.20;99.90
22558;DHT22;11445;53.816;8.902;2023-07-29T04:11:55;17.20;99.90
22558;DHT22;11445;53.816;8.902;2023-07-29T04:14:23;17.20;99.90
22558;DHT22;11445;53.816;8.902;2023-07-29T04:16:50;17.30;99.90
22558;DHT22;11445;53.816;8.902;2023-07-29T04:19:17;17.30;99.90
22558;DHT22;11445;53.816;8.902;2023-07-29T04:21:44;17.30;99.90
22558;DHT22;11445;53.816;8.902;2023-07-29T04:24:11;17.30;99.90
22558;DHT22;11445;53.816;8.902;2023-07-29T04:26:38;17.30;99.90
22558;DHT22;11445;53.816;8.902;2023-07-29T04:29:05;17.30;99.90
22558;DHT22;11445;53.816;8.902;2023-07-29T04:31:33;17.40;99.90
22558;DHT22;11445;53.816;8.902;2023-07-29T04:34:00;17.40;99.90
22558;DHT22;11445;53.816;8.902;2023-07-29T04:36:28;17.40;99.90
22558;DHT22;11445;53.816;8.902;2023-07-29T04:38:54;17.40;99.90
22558;DHT22;11445;53.816;8.902;2023-07-29T04:41:21;17.40;99.90
22558;DHT22;11445;53.816;8.902;2023-07-29T04:43:48;17.40;99.90
22558;DHT22;11445;53.816;8.902;2023-07-29T04:46:15;17.40;99.90
22558;DHT22;11445;53.816;8.902;2023-07-29T04:48:44;17.50;99.90
22558;DHT22;11445;53.816;8.902;2023-07-29T04:51:10;17.50;99.90
22558;DHT22;11445;53.816;8.902;2023-07-29T04:53:37;17.50;99.90
22558;DHT22;11445;53.816;8.902;2023-07-29T04:56:04;17.50;99.90
22558;DHT22;11445;53.816;8.902;2023-07-29T04:58:31;17.50;99.90
22558;DHT22;11445;53.816;8.902;2023-07-29T05:01:00;17.50;99.90
22558;DHT22;11445;53.816;8.902;2023-07-29T05:03:27;17.50;99.90
22558;DHT22;11445;53.816;8.902;2023-07-29T05:05:56;17.60;99.90
22558;DHT22;11445;53.816;8.902;2023-07-29T05:08:22;17.60;99.90
22558;DHT22;11445;53.816;8.902;2023-07-29T05:10:50;17.60;99.90
22558;DHT22;11445;53.816;8.902;2023-07-29T05:13:17;17.60;99.90
22558;DHT22;11445;53.816;8.902;2023-07-29T05:15:44;17.60;99.90
22558;DHT22;11445;53.816;8.902;2023-07-29T05:18:11;17.60;99.90
22558;DHT22;11445;53.816;8.902;2023-07-29T05:20:38;17.60;99.90
22558;DHT22;11445;53.816;8.902;2023-07-29T05:23:06;17.70;99.90
22558;DHT22;11445;53.816;8.902;2023-07-29T05:25:33;17.70;99.90
22558;DHT22;11445;53.816;8.902;2023-07-29T05:28:00;17.70;99.90
22558;DHT22;11445;53.816;8.902;2023-07-29T05:30:27;17.70;99.90
22558;DHT22;11445;53.816;8.902;2023-07-29T05:32:56;17.70;99.90
22558;DHT22;11445;53.816;8.902;2023-07-29T05:35:23;17.70;99.90
22558;DHT22;11445;53.816;8.902;2023-07-29T05:37:50;17.70;99.90
22558;DHT22;11445;53.816;8.902;2023-07-29T05:40:18;17.70;99.90
22558;DHT22;11445;53.816;8.902;2023-07-29T05:42:46;17.80;99.90
22558;DHT22;11445;53.816;8.902;2023-07-29T05:45:13;17.80;99.90
22558;DHT22;11445;53.816;8.902;2023-07-29T05:47:40;17.80;99.90
22558;DHT22;11445;53.816;8.902;2023-07-29T05:50:08;17.90;99.90
22558;DHT22;11445;53.816;8.902;2023-07-29T05:52:36;17.90;99.90
22558;DHT22;11445;53.816;8.902;2023-07-29T05:55:03;17.90;99.90
22558;DHT22;11445;53.816;8.902;2023-07-29T05:57:32;18.00;99.90
22558;DHT22;11445;53.816;8.902;2023-07-29T05:59:59;18.00;99.90
22558;DHT22;11445;53.816;8.902;2023-07-29T06:02:26;18.10;99.90
22558;DHT22;11445;53.816;8.902;2023-07-29T06:04:52;18.10;99.90
22558;DHT22;11445;53.816;8.902;2023-07-29T06:07:19;18.20;99.90
22558;DHT22;11445;53.816;8.902;2023-07-29T06:09:46;18.20;99.90
22558;DHT22;11445;53.816;8.902;2023-07-29T06:12:13;18.30;99.90
22558;DHT22;11445;53.816;8.902;2023-07-29T06:14:42;18.40;99.90
22558;DHT22;11445;53.816;8.902;2023-07-29T06:17:08;18.40;99.90
22558;DHT22;11445;53.816;8.902;2023-07-29T06:19:37;18.50;99.90
22558;DHT22;11445;53.816;8.902;2023-07-29T06:22:05;18.50;99.90
22558;DHT22;11445;53.816;8.902;2023-07-29T06:24:32;18.60;99.90
22558;DHT22;11445;53.816;8.902;2023-07-29T06:26:59;18.60;99.90
22558;DHT22;11445;53.816;8.902;2023-07-29T06:29:25;18.70;99.90
22558;DHT22;11445;53.816;8.902;2023-07-29T06:31:53;18.80;99.90
22558;DHT22;11445;53.816;8.902;2023-07-29T06:34:20;18.80;99.90
22558;DHT22;11445;53.816;8.902;2023-07-29T06:36:48;18.90;99.90
22558;DHT22;11445;53.816;8.902;2023-07-29T06:39:14;18.90;99.90
22558;DHT22;11445;53.816;8.902;2023-07-29T06:41:41;19.00;99.90
22558;DHT22;11445;53.816;8.902;2023-07-29T06:44:08;19.00;99.90
22558;DHT22;11445;53.816;8.902;2023-07-29T06:46:35;19.10;99.90
22558;DHT22;11445;53.816;8.902;2023-07-29T06:49:03;19.10;99.90
22558;DHT22;11445;53.816;8.902;2023-07-29T06:51:30;19.10;99.90
22558;DHT22;11445;53.816;8.902;2023-07-29T06:54:00;19.10;99.90
22558;DHT22;11445;53.816;8.902;2023-07-29T06:56:27;19.10;99.90
22558;DHT22;11445;53.816;8.902;2023-07-29T06:58:53;19.20;99.90
22558;DHT22;11445;53.816;8.902;2023-07-29T07:01:20;19.20;99.90
22558;DHT22;11445;53.816;8.902;2023-07-29T07:03:47;19.30;99.90
22558;DHT22;11445;53.816;8.902;2023-07-29T07:06:16;19.30;99.90
22558;DHT22;11445;53.816;8.902;2023-07-29T07:08:42;19.30;99.90
22558;DHT22;11445;53.816;8.902;2023-07-29T07:11:09;19.30;99.90
22558;DHT22;11445;53.816;8.902;2023-07-29T07:13:36;19.30;99.90
22558;DHT22;11445;53.816;8.902;2023-07-29T07:16:03;19.30;99.90
22558;DHT22;11445;53.816;8.902;2023-07-29T07:18:30;19.30;99.90
22558;DHT22;11445;53.816;8.902;2023-07-29T07:20:57;19.30;99.90
22558;DHT22;11445;53.816;8.902;2023-07-29T07:23:25;19.30;99.90
22558;DHT22;11445;53.816;8.902;2023-07-29T07:25:52;19.30;99.90
22558;DHT22;11445;53.816;8.902;2023-07-29T07:28:18;19.30;99.90
22558;DHT22;11445;53.816;8.902;2023-07-29T07:30:45;19.30;99.90
22558;DHT22;11445;53.816;8.902;2023-07-29T07:33:12;19.30;99.90
22558;DHT22;11445;53.816;8.902;2023-07-29T07:35:39;19.30;99.90
22558;DHT22;11445;53.816;8.902;2023-07-29T07:38:07;19.30;99.90
22558;DHT22;11445;53.816;8.902;2023-07-29T07:40:36;19.30;99.90
22558;DHT22;11445;53.816;8.902;2023-07-29T07:45:40;19.30;99.90
22558;DHT22;11445;53.816;8.902;2023-07-29T07:48:07;19.50;99.90
22558;DHT22;11445;53.816;8.902;2023-07-29T07:50:35;19.60;99.90
22558;DHT22;11445;53.816;8.902;2023-07-29T07:53:02;19.70;99.90
22558;DHT22;11445;53.816;8.902;2023-07-29T07:55:29;19.70;99.90
22558;DHT22;11445;53.816;8.902;2023-07-29T07:57:57;19.70;99.90
22558;DHT22;11445;53.816;8.902;2023-07-29T08:00:24;19.70;99.90
22558;DHT22;11445;53.816;8.902;2023-07-29T08:02:51;19.70;99.90
22558;DHT22;11445;53.816;8.902;2023-07-29T08:05:18;19.80;99.90
22558;DHT22;11445;53.816;8.902;2023-07-29T08:07:44;19.80;99.90
22558;DHT22;11445;53.816;8.902;2023-07-29T08:10:11;19.80;99.90
22558;DHT22;11445;53.816;8.902;2023-07-29T08:12:38;19.80;99.90
22558;DHT22;11445;53.816;8.902;2023-07-29T08:15:07;19.80;99.90
22558;DHT22;11445;53.816;8.902;2023-07-29T08:17:34;19.70;99.90
22558;DHT22;11445;53.816;8.902;2023-07-29T08:20:00;19.70;99.90
22558;DHT22;11445;53.816;8.902;2023-07-29T08:22:27;19.70;99.90
22558;DHT22;11445;53.816;8.902;2023-07-29T08:24:54;19.70;99.90
22558;DHT22;11445;53.816;8.902;2023-07-29T08:27:21;19.70;99.90
22558;DHT22;11445;53.816;8.902;2023-07-29T08:29:47;19.70;99.90
22558;DHT22;11445;53.816;8.902;2023-07-29T08:32:16;19.70;99.90
22558;DHT22;11445;53.816;8.902;2023-07-29T08:34:43;19.80;99.90
22558;DHT22;11445;53.816;8.902;2023-07-29T08:37:10;19.90;99.90
22558;DHT22;11445;53.816;8.902;2023-07-29T08:39:37;19.90;99.90
22558;DHT22;11445;53.816;8.902;2023-07-29T08:42:04;19.90;99.90
22558;DHT22;11445;53.816;8.902;2023-07-29T08:44:36;20.00;99.90
22558;DHT22;11445;53.816;8.902;2023-07-29T08:47:06;20.10;99.90
22558;DHT22;11445;53.816;8.902;2023-07-29T08:49:35;20.20;99.90
22558;DHT22;11445;53.816;8.902;2023-07-29T08:52:04;20.30;99.90
22558;DHT22;11445;53.816;8.902;2023-07-29T08:54:31;20.40;99.90
22558;DHT22;11445;53.816;8.902;2023-07-29T08:56:58;20.50;99.90
22558;DHT22;11445;53.816;8.902;2023-07-29T08:59:26;20.50;99.90
22558;DHT22;11445;53.816;8.902;2023-07-29T09:01:55;20.60;99.90
22558;DHT22;11445;53.816;8.902;2023-07-29T09:04:23;20.70;99.90
22558;DHT22;11445;53.816;8.902;2023-07-29T09:06:52;20.80;99.90
22558;DHT22;11445;53.816;8.902;2023-07-29T09:09:21;20.90;99.90
22558;DHT22;11445;53.816;8.902;2023-07-29T09:11:48;21.00;99.90
22558;DHT22;11445;53.816;8.902;2023-07-29T09:14:15;21.00;99.90
22558;DHT22;11445;53.816;8.902;2023-07-29T09:16:42;21.00;99.90
22558;DHT22;11445;53.816;8.902;2023-07-29T09:19:09;21.00;99.90
22558;DHT22;11445;53.816;8.902;2023-07-29T09:21:38;21.10;99.90
22558;DHT22;11445;53.816;8.902;2023-07-29T09:24:07;21.10;99.90
22558;DHT22;11445;53.816;8.902;2023-07-29T09:26:35;21.20;99.90
22558;DHT22;11445;53.816;8.902;2023-07-29T09:29:02;21.20;99.90
22558;DHT22;11445;53.816;8.902;2023-07-29T09:31:29;21.20;99.90
22558;DHT22;11445;53.816;8.902;2023-07-29T09:33:56;21.30;99.90
22558;DHT22;11445;53.816;8.902;2023-07-29T09:36:24;21.30;99.90
22558;DHT22;11445;53.816;8.902;2023-07-29T09:38:55;21.50;99.90
22558;DHT22;11445;53.816;8.902;2023-07-29T09:41:24;21.60;99.90
22558;DHT22;11445;53.816;8.902;2023-07-29T09:43:56;21.70;99.90
22558;DHT22;11445;53.816;8.902;2023-07-29T09:46:24;21.90;99.90
22558;DHT22;11445;53.816;8.902;2023-07-29T09:48:53;21.90;99.90
22558;DHT22;11445;53.816;8.902;2023-07-29T09:51:21;21.90;99.90
22558;DHT22;11445;53.816;8.902;2023-07-29T09:53:49;21.80;99.90
22558;DHT22;11445;53.816;8.902;2023-07-29T09:56:16;21.80;99.90
22558;DHT22;11445;53.816;8.902;2023-07-29T09:58:45;21.80;99.90
22558;DHT22;11445;53.816;8.902;2023-07-29T10:01:12;21.90;99.90
22558;DHT22;11445;53.816;8.902;2023-07-29T10:03:39;22.00;99.90
22558;DHT22;11445;53.816;8.902;2023-07-29T10:06:07;22.10;99.90
22558;DHT22;11445;53.816;8.902;2023-07-29T10:08:34;22.10;99.90
22558;DHT22;11445;53.816;8.902;2023-07-29T10:11:05;22.20;99.90
22558;DHT22;11445;53.816;8.902;2023-07-29T10:13:33;22.30;99.90
22558;DHT22;11445;53.816;8.902;2023-07-29T10:16:02;22.40;99.90
22558;DHT22;11445;53.816;8.902;2023-07-29T10:18:30;22.40;99.90
22558;DHT22;11445;53.816;8.902;2023-07-29T10:20:59;22.40;99.90
22558;DHT22;11445;53.816;8.902;2023-07-29T10:23:27;22.60;99.90
22558;DHT22;11445;53.816;8.902;2023-07-29T10:26:01;22.60;99.90
22558;DHT22;11445;53.816;8.902;2023-07-29T10:28:30;22.70;99.90
22558;DHT22;11445;53.816;8.902;2023-07-29T10:30:57;22.70;99.90
22558;DHT22;11445;53.816;8.902;2023-07-29T10:33:26;22.80;99.90
22558;DHT22;11445;53.816;8.902;2023-07-29T10:35:54;22.90;99.90
22558;DHT22;11445;53.816;8.902;2023-07-29T10:38:22;22.80;99.90
22558;DHT22;11445;53.816;8.902;2023-07-29T10:40:52;22.70;99.90
22558;DHT22;11445;53.816;8.902;2023-07-29T10:43:25;22.60;99.90
22558;DHT22;11445;53.816;8.902;2023-07-29T10:45:53;22.40;99.90
22558;DHT22;11445;53.816;8.902;2023-07-29T10:48:40;22.40;99.90
22558;DHT22;11445;53.816;8.902;2023-07-29T10:51:24;22.50;99.90
22558;DHT22;11445;53.816;8.902;2023-07-29T10:53:53;22.60;99.90
22558;DHT22;11445;53.816;8.902;2023-07-29T10:56:28;22.70;99.90
22558;DHT22;11445;53.816;8.902;2023-07-29T10:58:56;22.80;99.90
22558;DHT22;11445;53.816;8.902;2023-07-29T11:01:27;23.00;99.90
22558;DHT22;11445;53.816;8.902;2023-07-29T11:04:22;23.00;99.90
22558;DHT22;11445;53.816;8.902;2023-07-29T11:07:26;23.00;99.90
22558;DHT22;11445;53.816;8.902;2023-07-29T11:09:58;23.00;99.90
22558;DHT22;11445;53.816;8.902;2023-07-29T11:12:42;23.00;99.90
22558;DHT22;11445;53.816;8.902;2023-07-29T11:15:21;23.10;99.90
22558;DHT22;11445;53.816;8.902;2023-07-29T11:17:51;23.20;99.90
22558;DHT22;11445;53.816;8.902;2023-07-29T11:20:20;23.30;99.90
22558;DHT22;11445;53.816;8.902;2023-07-29T11:22:48;23.40;99.90
22558;DHT22;11445;53.816;8.902;2023-07-29T11:25:17;23.40;99.90
22558;DHT22;11445;53.816;8.902;2023-07-29T11:27:45;23.40;99.90
22558;DHT22;11445;53.816;8.902;2023-07-29T11:30:14;23.20;99.90
22558;DHT22;11445;53.816;8.902;2023-07-29T11:32:42;23.00;99.90
22558;DHT22;11445;53.816;8.902;2023-07-29T11:35:10;22.90;99.90
22558;DHT22;11445;53.816;8.902;2023-07-29T11:37:39;22.70;99.90
22558;DHT22;11445;53.816;8.902;2023-07-29T11:40:07;22.60;99.90
22558;DHT22;11445;53.816;8.902;2023-07-29T11:42:36;22.50;99.90
22558;DHT22;11445;53.816;8.902;2023-07-29T11:45:04;22.40;99.90
22558;DHT22;11445;53.816;8.902;2023-07-29T11:47:32;22.40;99.90
22558;DHT22;11445;53.816;8.902;2023-07-29T11:50:01;22.50;99.90
22558;DHT22;11445;53.816;8.902;2023-07-29T11:52:29;22.70;99.90
22558;DHT22;11445;53.816;8.902;2023-07-29T11:55:00;22.80;99.90
22558;DHT22;11445;53.816;8.902;2023-07-29T11:57:28;22.80;99.90
22558;DHT22;11445;53.816;8.902;2023-07-29T11:59:56;22.90;99.90
22558;DHT22;11445;53.816;8.902;2023-07-29T12:02:24;22.90;99.90
22558;DHT22;11445;53.816;8.902;2023-07-29T12:04:52;22.90;99.90
22558;DHT22;11445;53.816;8.902;2023-07-29T12:07:19;22.90;99.90
22558;DHT22;11445;53.816;8.902;2023-07-29T12:09:46;22.90;99.90
22558;DHT22;11445;53.816;8.902;2023-07-29T12:12:15;22.90;99.90
22558;DHT22;11445;53.816;8.902;2023-07-29T12:14:44;22.90;99.90
22558;DHT22;11445;53.816;8.902;2023-07-29T12:17:12;23.00;99.90
22558;DHT22;11445;53.816;8.902;2023-07-29T12:19:40;22.90;99.90
22558;DHT22;11445;53.816;8.902;2023-07-29T12:22:09;22.90;99.90
22558;DHT22;11445;53.816;8.902;2023-07-29T12:24:37;23.00;99.90
22558;DHT22;11445;53.816;8.902;2023-07-29T12:27:05;23.10;99.90
22558;DHT22;11445;53.816;8.902;2023-07-29T12:29:40;23.20;99.90
22558;DHT22;11445;53.816;8.902;2023-07-29T12:32:08;23.30;99.90
22558;DHT22;11445;53.816;8.902;2023-07-29T12:34:37;23.50;99.90
22558;DHT22;11445;53.816;8.902;2023-07-29T12:37:05;23.60;99.90
22558;DHT22;11445;53.816;8.902;2023-07-29T12:39:34;23.70;99.90
22558;DHT22;11445;53.816;8.902;2023-07-29T12:42:02;23.80;99.90
22558;DHT22;11445;53.816;8.902;2023-07-29T12:44:30;23.90;99.90
22558;DHT22;11445;53.816;8.902;2023-07-29T12:47:00;24.10;99.90
22558;DHT22;11445;53.816;8.902;2023-07-29T12:49:26;24.10;99.90
22558;DHT22;11445;53.816;8.902;2023-07-29T12:51:55;24.10;99.90
22558;DHT22;11445;53.816;8.902;2023-07-29T12:54:21;24.00;99.90
22558;DHT22;11445;53.816;8.902;2023-07-29T12:56:48;23.90;99.90
22558;DHT22;11445;53.816;8.902;2023-07-29T12:59:15;23.80;99.90
22558;DHT22;11445;53.816;8.902;2023-07-29T13:01:42;23.70;99.90
22558;DHT22;11445;53.816;8.902;2023-07-29T13:04:11;23.80;99.90
22558;DHT22;11445;53.816;8.902;2023-07-29T13:06:38;23.90;99.90
22558;DHT22;11445;53.816;8.902;2023-07-29T13:09:05;24.00;99.90
22558;DHT22;11445;53.816;8.902;2023-07-29T13:11:32;24.20;99.90
22558;DHT22;11445;53.816;8.902;2023-07-29T13:13:59;24.40;99.90
22558;DHT22;11445;53.816;8.902;2023-07-29T13:16:26;24.50;99.90
22558;DHT22;11445;53.816;8.902;2023-07-29T13:18:53;24.60;99.90
22558;DHT22;11445;53.816;8.902;2023-07-29T13:21:21;24.60;99.90
22558;DHT22;11445;53.816;8.902;2023-07-29T13:23:48;24.60;99.90
22558;DHT22;11445;53.816;8.902;2023-07-29T13:26:15;24.50;99.90
22558;DHT22;11445;53.816;8.902;2023-07-29T13:28:42;24.50;99.90
22558;DHT22;11445;53.816;8.902;2023-07-29T13:31:09;24.50;99.90
22558;DHT22;11445;53.816;8.902;2023-07-29T13:33:35;24.40;99.90
22558;DHT22;11445;53.816;8.902;2023-07-29T13:36:02;24.30;99.90
22558;DHT22;11445;53.816;8.902;2023-07-29T13:38:31;24.20;99.90
22558;DHT22;11445;53.816;8.902;2023-07-29T13:40:58;24.10;99.90
22558;DHT22;11445;53.816;8.902;2023-07-29T13:43:25;23.90;99.90
22558;DHT22;11445;53.816;8.902;2023-07-29T13:45:52;23.70;99.90
22558;DHT22;11445;53.816;8.902;2023-07-29T13:48:19;23.40;99.90
22558;DHT22;11445;53.816;8.902;2023-07-29T13:50:45;23.00;99.90
22558;DHT22;11445;53.816;8.902;2023-07-29T13:53:13;22.80;99.90
22558;DHT22;11445;53.816;8.902;2023-07-29T13:55:41;22.70;99.90
22558;DHT22;11445;53.816;8.902;2023-07-29T13:58:07;22.70;99.90
22558;DHT22;11445;53.816;8.902;2023-07-29T14:00:34;22.90;99.90
22558;DHT22;11445;53.816;8.902;2023-07-29T14:03:01;23.00;99.90
22558;DHT22;11445;53.816;8.902;2023-07-29T14:05:28;23.10;99.90
22558;DHT22;11445;53.816;8.902;2023-07-29T14:07:56;23.20;99.90
22558;DHT22;11445;53.816;8.902;2023-07-29T14:10:23;23.30;99.90
22558;DHT22;11445;53.816;8.902;2023-07-29T14:12:52;23.20;99.90
22558;DHT22;11445;53.816;8.902;2023-07-29T14:15:19;23.00;99.90
22558;DHT22;11445;53.816;8.902;2023-07-29T14:17:46;22.90;99.90
22558;DHT22;11445;53.816;8.902;2023-07-29T14:20:13;22.70;99.90
22558;DHT22;11445;53.816;8.902;2023-07-29T14:22:40;22.60;99.90
22558;DHT22;11445;53.816;8.902;2023-07-29T14:25:09;22.60;99.90
22558;DHT22;11445;53.816;8.902;2023-07-29T14:27:36;22.60;99.90
22558;DHT22;11445;53.816;8.902;2023-07-29T14:30:05;22.50;99.90
22558;DHT22;11445;53.816;8.902;2023-07-29T14:32:32;22.50;99.90
22558;DHT22;11445;53.816;8.902;2023-07-29T14:34:59;22.40;99.90
22558;DHT22;11445;53.816;8.902;2023-07-29T14:37:29;22.30;99.90
22558;DHT22;11445;53.816;8.902;2023-07-29T14:39:56;22.20;99.90
22558;DHT22;11445;53.816;8.902;2023-07-29T14:42:23;22.10;99.90
22558;DHT22;11445;53.816;8.902;2023-07-29T14:44:49;22.00;99.90
22558;DHT22;11445;53.816;8.902;2023-07-29T14:47:17;22.00;99.90
22558;DHT22;11445;53.816;8.902;2023-07-29T14:49:45;21.90;99.90
22558;DHT22;11445;53.816;8.902;2023-07-29T14:52:11;21.90;99.90
22558;DHT22;11445;53.816;8.902;2023-07-29T14:54:38;21.80;99.90
22558;DHT22;11445;53.816;8.902;2023-07-29T14:57:06;21.70;99.90
22558;DHT22;11445;53.816;8.902;2023-07-29T14:59:33;21.60;99.90
22558;DHT22;11445;53.816;8.902;2023-07-29T15:02:00;21.50;99.90
22558;DHT22;11445;53.816;8.902;2023-07-29T15:04:28;21.50;99.90
22558;DHT22;11445;53.816;8.902;2023-07-29T15:06:55;21.40;99.90
22558;DHT22;11445;53.816;8.902;2023-07-29T15:09:23;21.30;99.90
22558;DHT22;11445;53.816;8.902;2023-07-29T15:11:50;21.30;99.90
22558;DHT22;11445;53.816;8.902;2023-07-29T15:14:17;21.40;99.90
22558;DHT22;11445;53.816;8.902;2023-07-29T15:16:43;21.40;99.90
22558;DHT22;11445;53.816;8.902;2023-07-29T15:19:10;21.40;99.90
22558;DHT22;11445;53.816;8.902;2023-07-29T15:21:39;21.50;99.90
22558;DHT22;11445;53.816;8.902;2023-07-29T15:24:06;21.50;99.90
22558;DHT22;11445;53.816;8.902;2023-07-29T15:26:32;21.50;99.90
22558;DHT22;11445;53.816;8.902;2023-07-29T15:29:00;21.50;99.90
22558;DHT22;11445;53.816;8.902;2023-07-29T15:31:27;21.50;99.90
22558;DHT22;11445;53.816;8.902;2023-07-29T15:33:54;21.50;99.90
22558;DHT22;11445;53.816;8.902;2023-07-29T15:36:21;21.50;99.90